• Join FlightAware (Why Join?)
  • Login
  • US Flag 
07:29PM EDT


 

Airport Tracker/Info


-or-


 

Live Flight TrackerFlight Track Log ✈ ASQ5745 ✈ 13-Jul-2013 ✈ KIAD - KALB

Flight Track Log - Related Links

Times and Time Zones

All times are in EDT time to prevent confusion due to time zone crossing. See the ASQ5745 flight status page for this flight to view local times or setup timezone preferences in your user account.

Time Position Orientation Groundspeed Altitude Reporting Facility
EDT Latitude Longitude Course Direction KTS MPH feet Rate Location/Type
08:17AM 38.9833 -77.4333 358° North 179 206 2,100  Level Potomac TRACON
08:19AM 39.1078 -77.4400 358° North 267 307 6,100 2,340 Climbing Washington Center
08:20AM 39.1911 -77.4422 359° North 280 322 8,800 2,220 Climbing Washington Center
08:21AM 39.2764 -77.4442 359° North 296 341 10,700 1,500 Climbing Washington Center
08:22AM 39.3703 -77.4467 359° North 315 362 11,800 1,380 Climbing Washington Center
08:23AM 39.5425 -77.4533 358° North 360 414 14,300 1,440 Climbing New York Center
08:24AM 39.6428 -77.4522 360° North 386 444 15,600 1,200 Climbing New York Center
08:25AM 39.7592 -77.4228 11° North 391 450 16,800 1,080 Climbing New York Center
08:26AM 39.8569 -77.3536 28° Northeast 391 450 17,800 1,020 Climbing New York Center
08:27AM 39.9439 -77.2858 31° Northeast 401 461 18,900 1,080 Climbing New York Center
08:28AM 40.0506 -77.2036 31° Northeast 401 461 20,000 780 Climbing New York Center
08:29AM 40.1422 -77.1306 31° Northeast 408 470 20,600 540 Climbing New York Center
08:30AM 40.2444 -77.0500 31° Northeast 413 475 21,100 480 Climbing New York Center
08:31AM 40.3489 -76.9669 31° Northeast 424 488 21,600 480 Climbing New York Center
08:32AM 40.4597 -76.8842 30° Northeast 441 507 22,100 540 Climbing New York Center
08:33AM 40.5661 -76.7981 32° Northeast 446 513 22,700 540 Climbing New York Center
08:34AM 40.6725 -76.7142 31° Northeast 446 513 23,200 480 Climbing New York Center
08:35AM 40.7831 -76.6278 31° Northeast 446 513 23,700 420 Climbing New York Center
08:36AM 40.9044 -76.5753 18° North 446 513 24,100 420 Climbing New York Center
08:37AM 41.0275 -76.5333 14° North 451 519 24,600 540 Climbing New York Center
08:38AM 41.1522 -76.4944 13° North 451 519 25,200 540 Climbing New York Center
08:39AM 41.2750 -76.4550 14° North 451 519 25,700 480 Climbing New York Center
08:40AM 41.4019 -76.4106 15° North 459 528 26,200 480 Climbing New York Center
08:41AM 41.5292 -76.3631 16° North 465 535 26,700 360 Climbing New York Center
08:42AM 41.6500 -76.3175 16° North 460 529 27,000 -120 Climbing New York Center
08:44AM 41.8497 -76.2169 21° North 488 562 26,500 -660 Descending Boston Center
08:45AM 41.9214 -76.0592 59° Northeast 458 527 25,400 -1,140 Descending Boston Center
08:46AM 41.9944 -75.8622 63° Northeast 473 544 24,000 -660 Descending Boston Center
08:47AM 42.0575 -75.7036 62° Northeast 480 552 24,000  Level Boston Center
08:48AM 42.1183 -75.5386 64° Northeast 466 536 24,000  Level Boston Center
08:49AM 42.1744 -75.3844 64° Northeast 454 522 24,000 -240 Level Boston Center
08:50AM 42.2306 -75.2300 64° Northeast 454 522 23,600 -1,320 Descending Boston Center
08:51AM 42.2817 -75.0950 63° Northeast 454 522 21,400 -2,340 Descending Boston Center
08:52AM 42.3397 -74.9344 64° Northeast 453 521 19,000 -2,460 Descending Boston Center
08:53AM 42.3975 -74.7681 65° Northeast 453 521 16,500 -2,400 Descending Boston Center
08:54AM 42.4281 -74.6989 59° Northeast 433 498 15,400 -2,340 Descending Boston Center
08:55AM 42.4744 -74.5625 65° Northeast 400 460 13,000 -2,340 Descending Boston Center
08:56AM 42.5122 -74.4258 69° East 371 427 10,800 -1,500 Descending Boston Center
08:57AM 42.5228 -74.2936 84° East 278 320 9,900 -960 Descending Boston Center
08:57AM 42.5256 -74.2572 84° East 301 346 9,200 -1,860 Descending Boston Center
08:58AM 42.5333 -74.1475 84° East 271 312 7,100 -2,100 Descending Boston Center
08:59AM 42.5414 -74.0350 84° East 266 306 5,000 -1,920 Descending Boston Center
09:00AM 42.5447 -73.9478 87° East 266 306 3,300 -1,020 Descending Boston Center
09:01AM 42.5519 -73.8550 84° East 243 280 3,000 -240 Descending Boston Center
09:02AM 42.5567 -73.8183 80° East 204 235 3,000 -600 Level Boston Center
09:02AM 42.5800 -73.7964 35° Northeast 197 227 2,400 -1,200 Descending Boston Center